Time;durP1;ratioP1;P1;durP2;ratioP2;P2;SDS_P1;SDS_P2;PMS_P1;PMS_P2;Temp;Humidity;BMP_temperature;BMP_pressure;BME280_temperature;BME280_humidity;BME280_pressure;Samples;Min_cycle;Max_cycle;Signal;HPM_P1;HPM_P2
2021/08/18 00:01:08;;;;;;;22.20;16.10;;;20.70;71.50;;;;;;5063020;28;20416;-60
2021/08/18 00:03:34;;;;;;;19.45;15.75;;;20.70;71.50;;;;;;5016768;28;20492;-60
2021/08/18 00:05:59;;;;;;;20.98;15.68;;;20.60;71.60;;;;;;5049018;28;20076;-60
2021/08/18 00:08:25;;;;;;;23.77;16.33;;;20.60;71.90;;;;;;5064848;28;20087;-60
2021/08/18 00:10:50;;;;;;;22.17;16.50;;;20.60;72.20;;;;;;5048745;28;20619;-60
2021/08/18 00:13:16;;;;;;;22.33;16.95;;;20.60;72.20;;;;;;5031370;28;20415;-60
2021/08/18 00:15:42;;;;;;;25.10;17.33;;;20.60;72.30;;;;;;5061421;28;20036;-60
2021/08/18 00:18:08;;;;;;;23.83;16.90;;;20.60;72.40;;;;;;5064606;28;20045;-60
2021/08/18 00:20:33;;;;;;;23.30;16.25;;;20.60;72.40;;;;;;5059549;28;20094;-59
2021/08/18 00:22:59;;;;;;;23.77;17.25;;;20.60;72.60;;;;;;5045120;28;20020;-60
2021/08/18 00:25:26;;;;;;;22.95;17.30;;;20.60;72.80;;;;;;5061675;28;20113;-60
2021/08/18 00:27:52;;;;;;;24.27;16.80;;;20.60;72.80;;;;;;5044669;28;20150;-60
2021/08/18 00:30:18;;;;;;;22.45;16.65;;;20.50;72.80;;;;;;5047523;28;20111;-60
2021/08/18 00:32:43;;;;;;;24.17;17.58;;;20.50;72.90;;;;;;5061045;28;20596;-60
2021/08/18 00:35:09;;;;;;;20.92;16.58;;;20.50;73.00;;;;;;5052498;28;20032;-60
2021/08/18 00:37:34;;;;;;;20.80;17.02;;;20.50;73.10;;;;;;5066482;28;20067;-60
2021/08/18 00:40:00;;;;;;;21.67;17.30;;;20.50;73.20;;;;;;5068648;28;20036;-60
2021/08/18 00:42:26;;;;;;;18.45;15.63;;;20.50;73.30;;;;;;5061611;28;20472;-60
2021/08/18 00:44:53;;;;;;;21.50;16.08;;;20.50;73.50;;;;;;5020071;28;20056;-60
2021/08/18 00:47:19;;;;;;;21.40;16.75;;;20.50;73.50;;;;;;5040205;28;20110;-61
2021/08/18 00:49:44;;;;;;;21.17;16.35;;;20.50;73.70;;;;;;5059364;28;20640;-59
2021/08/18 00:52:10;;;;;;;19.23;16.55;;;20.40;73.70;;;;;;5042560;28;20156;-60
2021/08/18 00:54:35;;;;;;;21.52;15.95;;;20.40;73.80;;;;;;5031296;28;20032;-60
2021/08/18 00:57:02;;;;;;;25.63;17.13;;;20.40;73.80;;;;;;5041105;28;20082;-59
2021/08/18 00:59:28;;;;;;;21.67;17.73;;;20.40;73.80;;;;;;5026145;28;20554;-60
2021/08/18 01:01:54;;;;;;;22.17;18.13;;;20.40;73.90;;;;;;5045136;28;20029;-60
2021/08/18 01:04:19;;;;;;;23.35;19.10;;;20.40;74.00;;;;;;5058557;28;20048;-60
2021/08/18 01:06:46;;;;;;;24.05;17.95;;;20.40;74.20;;;;;;5049288;28;20021;-60
2021/08/18 01:09:16;;;;;;;24.02;18.15;;;20.50;74.30;;;;;;5012478;28;20037;-60
2021/08/18 01:11:43;;;;;;;25.17;17.60;;;20.40;74.40;;;;;;5057828;28;20037;-60
2021/08/18 01:14:09;;;;;;;23.02;17.30;;;20.40;74.50;;;;;;5049294;28;20096;-59
2021/08/18 01:16:35;;;;;;;21.67;18.45;;;20.30;74.50;;;;;;5039314;28;20123;-59
2021/08/18 01:19:01;;;;;;;23.23;17.98;;;20.40;74.60;;;;;;5042835;28;20035;-60
2021/08/18 01:21:26;;;;;;;25.00;19.15;;;20.30;75.30;;;;;;5060119;28;20032;-60
2021/08/18 01:23:52;;;;;;;22.83;17.88;;;20.30;74.70;;;;;;5063832;28;20028;-60
2021/08/18 01:26:17;;;;;;;27.05;18.42;;;20.40;74.90;;;;;;5042767;28;20079;-60
2021/08/18 01:28:43;;;;;;;23.17;17.88;;;20.30;74.80;;;;;;5062026;28;20036;-59
2021/08/18 01:31:08;;;;;;;20.92;17.20;;;20.30;74.90;;;;;;5055070;28;20087;-59
2021/08/18 01:33:34;;;;;;;23.63;17.63;;;20.30;75.10;;;;;;5041080;28;20012;-60
2021/08/18 01:36:00;;;;;;;20.33;16.25;;;20.30;75.10;;;;;;5010966;28;20328;-60
2021/08/18 01:38:25;;;;;;;22.65;17.73;;;20.30;75.10;;;;;;5038371;28;20033;-59
2021/08/18 01:40:51;;;;;;;23.95;16.15;;;20.30;75.20;;;;;;5041446;28;20039;-59
2021/08/18 01:43:21;;;;;;;23.00;16.60;;;20.30;75.20;;;;;;5041008;28;20050;-60
2021/08/18 01:45:47;;;;;;;22.30;16.02;;;20.30;75.20;;;;;;5043724;28;20052;-60
2021/08/18 01:48:23;;;;;;;21.92;17.17;;;20.20;75.10;;;;;;5030468;28;20028;-60
2021/08/18 01:50:53;;;;;;;23.70;16.73;;;20.20;75.20;;;;;;5038828;28;20086;-60
2021/08/18 01:53:39;;;;;;;25.38;15.90;;;20.20;75.30;;;;;;5026735;28;20079;-60
2021/08/18 01:56:05;;;;;;;21.60;17.48;;;20.20;75.20;;;;;;5022597;28;20574;-60
2021/08/18 01:58:34;;;;;;;26.33;17.35;;;20.30;75.50;;;;;;5023328;28;20112;-60
2021/08/18 02:00:59;;;;;;;25.90;17.52;;;20.20;75.30;;;;;;5044058;28;20473;-59
2021/08/18 02:03:25;;;;;;;21.45;17.80;;;20.20;75.40;;;;;;5062794;28;20142;-60
2021/08/18 02:05:50;;;;;;;23.35;17.38;;;20.40;75.50;;;;;;5054779;28;21218;-59
2021/08/18 02:08:16;;;;;;;26.92;16.73;;;20.20;75.50;;;;;;5059812;28;20033;-60
2021/08/18 02:10:41;;;;;;;21.92;17.45;;;20.20;75.50;;;;;;5043122;28;20473;-60
2021/08/18 02:13:10;;;;;;;22.75;16.83;;;20.20;75.60;;;;;;5067701;28;20032;-59
2021/08/18 02:15:35;;;;;;;20.33;16.63;;;20.10;75.50;;;;;;5026438;28;20036;-59
2021/08/18 02:18:01;;;;;;;22.52;16.88;;;20.10;75.50;;;;;;5024875;28;20385;-60
2021/08/18 02:20:28;;;;;;;22.08;16.17;;;20.10;75.50;;;;;;5061350;28;20162;-59
2021/08/18 02:22:54;;;;;;;21.55;16.70;;;20.20;75.60;;;;;;5061517;28;20040;-60
2021/08/18 02:25:20;;;;;;;19.73;16.15;;;20.20;75.50;;;;;;5042924;28;20024;-60
2021/08/18 02:27:45;;;;;;;21.40;16.23;;;20.10;75.50;;;;;;5045919;28;20021;-60
2021/08/18 02:30:12;;;;;;;25.15;17.13;;;20.10;75.50;;;;;;5044162;28;20483;-59
2021/08/18 02:32:38;;;;;;;18.80;15.85;;;20.10;75.50;;;;;;5066075;28;20452;-59
2021/08/18 02:35:04;;;;;;;19.95;15.27;;;20.10;75.50;;;;;;5066460;28;20075;-60
2021/08/18 02:37:29;;;;;;;21.02;15.73;;;20.10;75.50;;;;;;5044939;28;20047;-59
2021/08/18 02:39:55;;;;;;;19.75;15.07;;;20.10;75.40;;;;;;5025779;28;20032;-60
2021/08/18 02:42:20;;;;;;;18.60;15.80;;;20.10;75.40;;;;;;5040465;28;20033;-60
2021/08/18 02:44:47;;;;;;;20.73;15.95;;;20.00;75.30;;;;;;5044154;28;20028;-60
2021/08/18 02:47:12;;;;;;;18.52;15.80;;;20.00;75.20;;;;;;5060663;28;20494;-60
2021/08/18 02:49:38;;;;;;;17.85;14.82;;;20.00;75.30;;;;;;5041208;28;20159;-60
2021/08/18 02:52:04;;;;;;;20.10;15.43;;;20.00;75.30;;;;;;5028144;28;20052;-60
2021/08/18 02:54:29;;;;;;;19.58;14.93;;;20.00;75.20;;;;;;5045075;28;20025;-59
2021/08/18 02:56:55;;;;;;;21.25;15.48;;;20.00;75.30;;;;;;5042037;28;20028;-59
2021/08/18 02:59:20;;;;;;;18.80;15.30;;;20.00;75.20;;;;;;5043420;28;20033;-59
2021/08/18 03:01:47;;;;;;;19.02;15.57;;;20.00;76.00;;;;;;5057297;28;20798;-60
2021/08/18 03:04:12;;;;;;;21.55;16.05;;;20.00;75.30;;;;;;5023947;28;20024;-60
2021/08/18 03:06:38;;;;;;;20.50;16.80;;;20.00;75.30;;;;;;5068437;28;20092;-59
2021/08/18 03:09:03;;;;;;;21.27;15.90;;;20.00;75.30;;;;;;5029552;28;20411;-60
2021/08/18 03:11:29;;;;;;;19.15;15.63;;;19.90;75.30;;;;;;5065439;28;20052;-60
2021/08/18 03:13:54;;;;;;;23.40;16.15;;;19.90;75.20;;;;;;5048870;28;20434;-60
2021/08/18 03:16:20;;;;;;;20.90;16.08;;;19.90;75.20;;;;;;5029409;28;20563;-59
2021/08/18 03:18:45;;;;;;;20.77;14.65;;;19.90;75.20;;;;;;5044095;28;20037;-59
2021/08/18 03:21:12;;;;;;;23.58;15.55;;;19.90;75.20;;;;;;5060631;28;20041;-59
2021/08/18 03:23:37;;;;;;;20.55;15.00;;;19.90;75.30;;;;;;5030382;28;20120;-60
2021/08/18 03:26:03;;;;;;;18.38;14.85;;;19.90;75.30;;;;;;5045534;28;20111;-60
2021/08/18 03:28:29;;;;;;;18.35;14.77;;;19.80;75.20;;;;;;5044498;28;20036;-60
2021/08/18 03:30:54;;;;;;;19.60;14.77;;;19.80;75.30;;;;;;5042907;28;20392;-59
2021/08/18 03:33:19;;;;;;;20.80;15.40;;;19.80;75.30;;;;;;5044008;28;20112;-59
2021/08/18 03:35:45;;;;;;;20.27;14.98;;;19.80;75.30;;;;;;5045687;28;20490;-60
2021/08/18 03:38:11;;;;;;;19.85;14.35;;;19.80;75.30;;;;;;5011421;28;20037;-60
2021/08/18 03:40:36;;;;;;;22.33;15.25;;;19.80;75.20;;;;;;5030444;28;20662;-60
2021/08/18 03:43:02;;;;;;;21.52;15.30;;;19.80;75.20;;;;;;5046744;28;20111;-60
2021/08/18 03:45:27;;;;;;;20.77;14.13;;;19.80;75.20;;;;;;5052809;28;20421;-59
2021/08/18 03:47:53;;;;;;;43.75;17.38;;;19.80;75.30;;;;;;5046474;28;20048;-60
2021/08/18 03:50:18;;;;;;;31.98;16.38;;;19.70;75.20;;;;;;5042478;28;20441;-59
2021/08/18 03:52:44;;;;;;;44.38;16.60;;;19.80;75.20;;;;;;5040574;28;20040;-60
2021/08/18 03:55:11;;;;;;;53.65;16.70;;;19.70;75.10;;;;;;5043587;28;20110;-60
2021/08/18 03:57:36;;;;;;;67.97;19.08;;;19.70;75.10;;;;;;5049296;28;20397;-60
2021/08/18 04:00:03;;;;;;;63.88;17.85;;;19.70;75.20;;;;;;5026122;28;20083;-60
2021/08/18 04:02:29;;;;;;;72.15;17.75;;;19.70;75.20;;;;;;5043930;28;20146;-60
2021/08/18 04:04:54;;;;;;;77.07;18.73;;;19.70;75.20;;;;;;5042398;28;20147;-60
2021/08/18 04:07:20;;;;;;;78.10;18.30;;;19.70;75.20;;;;;;5016248;28;20079;-60
2021/08/18 04:09:45;;;;;;;69.47;18.35;;;19.70;75.30;;;;;;5012708;28;20551;-60
2021/08/18 04:12:11;;;;;;;75.60;19.70;;;19.70;75.30;;;;;;5063269;28;20020;-59
2021/08/18 04:14:36;;;;;;;67.45;17.92;;;19.70;75.20;;;;;;5042469;28;20025;-59
2021/08/18 04:17:02;;;;;;;65.97;18.77;;;19.70;75.40;;;;;;5035249;28;20069;-59
2021/08/18 04:19:27;;;;;;;68.25;18.38;;;19.70;75.30;;;;;;5045044;28;20099;-59
2021/08/18 04:21:53;;;;;;;59.75;17.55;;;19.70;75.30;;;;;;5040596;28;20111;-59
2021/08/18 04:24:18;;;;;;;56.53;17.73;;;19.70;75.40;;;;;;5045708;28;20159;-60
2021/08/18 04:26:44;;;;;;;57.28;17.17;;;19.70;75.40;;;;;;5063346;28;20054;-59
2021/08/18 04:29:09;;;;;;;41.38;17.40;;;19.70;75.40;;;;;;5045547;28;20206;-60
2021/08/18 04:31:35;;;;;;;45.63;16.73;;;19.60;75.30;;;;;;5024432;28;20643;-59
2021/08/18 04:34:00;;;;;;;38.38;15.95;;;19.60;75.20;;;;;;5028277;28;20539;-60
2021/08/18 04:36:26;;;;;;;52.92;16.25;;;19.70;75.30;;;;;;5043484;28;20021;-59
2021/08/18 04:38:51;;;;;;;52.92;16.70;;;19.70;75.40;;;;;;5048248;28;20395;-60
2021/08/18 04:41:17;;;;;;;47.53;17.02;;;19.70;75.60;;;;;;5034203;28;20499;-60
2021/08/18 04:43:42;;;;;;;35.95;15.95;;;19.60;75.70;;;;;;5042114;28;20064;-60
2021/08/18 04:46:08;;;;;;;47.80;17.17;;;19.70;75.60;;;;;;5030186;28;20086;-59
2021/08/18 04:48:34;;;;;;;37.80;15.43;;;19.60;75.70;;;;;;5044886;28;20028;-59
2021/08/18 04:51:01;;;;;;;42.47;16.65;;;19.60;75.80;;;;;;5025282;28;20047;-59
2021/08/18 04:53:27;;;;;;;44.50;16.90;;;19.60;75.80;;;;;;5060655;28;20598;-59
2021/08/18 04:55:52;;;;;;;39.25;15.68;;;19.60;75.80;;;;;;5025866;28;20404;-59
2021/08/18 04:58:18;;;;;;;41.97;16.88;;;19.60;75.80;;;;;;5050175;28;20384;-59
2021/08/18 05:00:43;;;;;;;43.00;17.15;;;19.60;75.80;;;;;;5046651;28;20029;-60
2021/08/18 05:03:13;;;;;;;33.50;15.38;;;19.60;75.70;;;;;;5061351;28;20473;-60
2021/08/18 05:05:39;;;;;;;37.30;15.35;;;19.60;75.80;;;;;;5028062;28;20024;-59
2021/08/18 05:08:06;;;;;;;42.17;16.42;;;19.60;75.80;;;;;;5050552;28;20507;-60
2021/08/18 05:10:32;;;;;;;39.20;17.75;;;19.60;75.80;;;;;;5040889;28;20059;-59
2021/08/18 05:12:58;;;;;;;32.97;14.18;;;19.50;75.80;;;;;;5040711;28;20132;-60
2021/08/18 05:15:24;;;;;;;42.92;16.15;;;19.50;75.80;;;;;;5063588;28;20123;-60
2021/08/18 05:17:49;;;;;;;40.95;15.30;;;19.50;75.80;;;;;;5044260;28;20136;-60
2021/08/18 05:20:15;;;;;;;35.75;15.18;;;19.50;75.90;;;;;;5026367;28;20117;-60
2021/08/18 05:22:41;;;;;;;37.58;15.18;;;19.60;76.10;;;;;;5039846;28;20060;-59
2021/08/18 05:25:07;;;;;;;39.70;16.35;;;19.50;76.10;;;;;;5027220;28;20079;-59
2021/08/18 05:27:33;;;;;;;29.63;15.38;;;19.50;76.20;;;;;;5028733;28;20111;-60
2021/08/18 05:29:58;;;;;;;39.55;15.63;;;19.50;76.30;;;;;;5045375;28;20143;-59
2021/08/18 05:32:24;;;;;;;30.38;14.75;;;19.50;76.40;;;;;;5036109;28;20513;-60
2021/08/18 05:34:49;;;;;;;31.92;14.80;;;19.50;76.40;;;;;;5015352;28;20044;-59
2021/08/18 05:37:15;;;;;;;28.60;15.15;;;19.50;76.40;;;;;;5039530;28;20281;-59
2021/08/18 05:39:40;;;;;;;35.25;15.45;;;19.50;76.30;;;;;;5039735;28;20028;-59
2021/08/18 05:42:06;;;;;;;27.67;15.10;;;19.50;76.30;;;;;;5055118;28;20396;-59
2021/08/18 05:44:31;;;;;;;36.00;16.23;;;19.50;76.20;;;;;;5039239;28;20186;-60
2021/08/18 05:46:57;;;;;;;39.42;16.13;;;19.50;76.30;;;;;;5018739;28;20040;-59
2021/08/18 05:49:22;;;;;;;27.55;14.73;;;19.50;76.20;;;;;;5054252;28;20055;-59
2021/08/18 05:51:51;;;;;;;23.17;14.18;;;19.50;76.20;;;;;;5021701;28;20036;-60
2021/08/18 05:54:17;;;;;;;25.48;13.98;;;19.50;76.10;;;;;;5038829;28;20024;-60
2021/08/18 05:56:42;;;;;;;20.58;14.00;;;19.50;76.10;;;;;;5019462;28;20054;-60
2021/08/18 05:59:08;;;;;;;25.17;14.23;;;19.50;76.10;;;;;;5007207;28;20016;-60
2021/08/18 06:01:34;;;;;;;23.27;14.20;;;19.50;76.00;;;;;;5040399;28;20075;-60
2021/08/18 06:03:59;;;;;;;24.63;12.95;;;19.50;76.00;;;;;;5023130;28;20134;-60
2021/08/18 06:06:25;;;;;;;26.98;13.48;;;19.50;76.00;;;;;;5009415;28;20036;-60
2021/08/18 06:08:50;;;;;;;30.33;14.75;;;19.50;76.00;;;;;;5040141;28;20043;-59
2021/08/18 06:11:16;;;;;;;25.88;14.23;;;19.50;75.90;;;;;;5038727;28;20025;-60
2021/08/18 06:13:41;;;;;;;21.13;14.05;;;19.50;75.90;;;;;;5043283;28;20033;-59
2021/08/18 06:16:07;;;;;;;18.90;13.35;;;19.50;75.90;;;;;;5022243;28;20451;-60
2021/08/18 06:18:32;;;;;;;25.83;13.77;;;19.50;75.90;;;;;;5037950;28;20656;-60
2021/08/18 06:20:58;;;;;;;21.67;13.43;;;19.50;75.80;;;;;;5033445;28;20151;-60
2021/08/18 06:23:25;;;;;;;19.77;13.02;;;19.50;75.80;;;;;;5021850;28;20042;-60
2021/08/18 06:25:52;;;;;;;20.17;12.80;;;19.50;75.80;;;;;;5036572;28;20115;-60
2021/08/18 06:28:18;;;;;;;19.65;13.30;;;19.50;75.80;;;;;;5036915;28;20033;-59
2021/08/18 06:30:43;;;;;;;23.67;13.25;;;19.50;75.70;;;;;;5033084;28;20055;-60
2021/08/18 06:33:09;;;;;;;23.10;13.80;;;19.50;75.70;;;;;;5035888;28;20041;-60
2021/08/18 06:35:35;;;;;;;22.02;13.70;;;19.50;75.70;;;;;;5035113;28;20029;-60
2021/08/18 06:38:00;;;;;;;30.60;13.82;;;19.50;75.60;;;;;;5033294;28;20127;-59
2021/08/18 06:40:26;;;;;;;25.45;13.02;;;19.50;75.90;;;;;;5051084;28;20431;-60
2021/08/18 06:42:51;;;;;;;28.48;12.85;;;19.50;75.80;;;;;;5053149;28;20469;-60
2021/08/18 06:45:17;;;;;;;20.35;12.15;;;19.50;75.70;;;;;;5021142;28;20682;-60
2021/08/18 06:47:43;;;;;;;33.72;12.82;;;19.60;75.80;;;;;;5019792;28;20029;-59
2021/08/18 06:50:09;;;;;;;23.95;12.70;;;19.60;76.10;;;;;;5025429;28;20032;-60
2021/08/18 06:52:35;;;;;;;29.75;13.10;;;19.60;75.60;;;;;;5016447;28;20060;-59
2021/08/18 06:55:01;;;;;;;31.20;13.68;;;19.60;75.60;;;;;;5001777;28;20115;-60
2021/08/18 06:57:26;;;;;;;28.30;13.32;;;19.60;75.60;;;;;;5031560;28;20036;-60
2021/08/18 06:59:52;;;;;;;27.35;12.50;;;19.60;75.80;;;;;;5043706;28;20043;-60
2021/08/18 07:02:17;;;;;;;33.72;12.80;;;19.60;75.60;;;;;;5013629;28;20036;-60
2021/08/18 07:04:43;;;;;;;35.42;12.85;;;19.60;75.60;;;;;;5010110;28;20061;-61
2021/08/18 07:07:08;;;;;;;25.92;12.80;;;19.60;75.80;;;;;;5004604;28;20146;-61
2021/08/18 07:09:34;;;;;;;39.58;13.35;;;19.50;75.60;;;;;;5003916;28;20037;-61
2021/08/18 07:11:59;;;;;;;25.77;13.02;;;19.50;75.70;;;;;;5018317;28;20033;-61
2021/08/18 07:14:25;;;;;;;20.23;11.02;;;19.50;75.70;;;;;;4997227;28;20132;-61
2021/08/18 07:16:51;;;;;;;27.85;11.88;;;19.40;75.70;;;;;;5028652;28;20052;-61
2021/08/18 07:19:16;;;;;;;33.53;12.38;;;19.40;75.80;;;;;;5054754;28;20034;-60
2021/08/18 07:21:42;;;;;;;21.00;11.77;;;19.40;75.70;;;;;;5011050;28;20037;-61
2021/08/18 07:24:07;;;;;;;25.85;11.82;;;19.30;75.70;;;;;;5016547;28;20604;-60
2021/08/18 07:26:33;;;;;;;22.33;11.23;;;19.30;75.70;;;;;;5034242;28;20122;-60
2021/08/18 07:28:59;;;;;;;19.75;11.30;;;19.30;75.70;;;;;;5020119;28;20052;-61
2021/08/18 07:31:25;;;;;;;19.30;11.18;;;19.30;75.90;;;;;;5006178;28;20089;-61
2021/08/18 07:33:51;;;;;;;21.27;11.15;;;19.20;75.90;;;;;;5009704;28;20341;-60
2021/08/18 07:36:16;;;;;;;26.08;11.25;;;19.20;76.00;;;;;;5007506;28;20102;-61
2021/08/18 07:38:42;;;;;;;28.92;11.48;;;19.20;76.10;;;;;;5023028;28;20028;-61
2021/08/18 07:41:08;;;;;;;28.90;10.95;;;19.20;76.10;;;;;;5007151;28;20484;-60
2021/08/18 07:43:33;;;;;;;32.75;12.10;;;19.20;76.00;;;;;;5008923;28;20148;-60
2021/08/18 07:45:59;;;;;;;21.10;11.05;;;19.20;75.90;;;;;;5007114;28;20029;-60
2021/08/18 07:48:25;;;;;;;23.52;11.40;;;19.20;75.90;;;;;;5033606;28;20040;-61
2021/08/18 07:50:50;;;;;;;22.20;10.85;;;19.20;76.00;;;;;;5028253;28;20052;-60
2021/08/18 07:53:16;;;;;;;28.17;10.98;;;19.30;76.00;;;;;;5019525;28;20044;-60
2021/08/18 07:55:42;;;;;;;38.55;11.35;;;19.20;76.00;;;;;;5010823;28;20040;-60
2021/08/18 07:58:07;;;;;;;38.17;12.85;;;19.30;75.90;;;;;;5024428;28;20071;-60
2021/08/18 08:00:37;;;;;;;47.70;12.40;;;19.20;75.80;;;;;;5016189;28;20909;-61
2021/08/18 08:03:03;;;;;;;39.50;13.02;;;19.30;75.90;;;;;;5038830;28;20039;-61
2021/08/18 08:05:29;;;;;;;46.50;12.90;;;19.30;75.90;;;;;;5001405;28;20024;-61
2021/08/18 08:07:55;;;;;;;55.08;13.65;;;19.20;75.80;;;;;;5004362;28;20016;-61
2021/08/18 08:10:20;;;;;;;128.70;22.05;;;19.20;75.90;;;;;;5002643;28;20039;-60
2021/08/18 08:12:46;;;;;;;97.38;18.42;;;19.30;75.90;;;;;;5032805;28;20024;-60
2021/08/18 08:15:12;;;;;;;70.38;15.00;;;19.30;76.00;;;;;;5020974;28;20050;-60
2021/08/18 08:17:37;;;;;;;77.20;15.57;;;19.30;76.30;;;;;;5004229;28;20718;-61
2021/08/18 08:20:04;;;;;;;80.97;16.40;;;19.30;76.20;;;;;;5019384;28;20511;-62
2021/08/18 08:22:30;;;;;;;72.72;14.43;;;19.20;76.30;;;;;;4998660;28;20123;-61
2021/08/18 08:24:55;;;;;;;40.13;12.90;;;19.30;76.20;;;;;;5018777;28;20115;-61
2021/08/18 08:27:21;;;;;;;43.78;13.55;;;19.30;76.20;;;;;;5004102;28;20111;-60
2021/08/18 08:29:47;;;;;;;43.42;13.30;;;19.30;76.30;;;;;;5031704;28;20036;-61
2021/08/18 08:32:12;;;;;;;47.58;12.85;;;19.30;76.30;;;;;;5000096;28;20032;-61
2021/08/18 08:34:38;;;;;;;97.25;17.15;;;19.30;76.20;;;;;;4998828;28;20028;-60
2021/08/18 08:37:04;;;;;;;49.60;14.05;;;19.40;76.30;;;;;;5034981;28;20032;-61
2021/08/18 08:39:29;;;;;;;59.65;14.85;;;19.40;76.40;;;;;;5025313;28;20391;-61
2021/08/18 08:41:55;;;;;;;54.42;14.50;;;19.40;76.30;;;;;;5031214;28;20048;-61
2021/08/18 08:44:22;;;;;;;49.97;13.60;;;19.40;76.10;;;;;;5024638;28;20040;-60
2021/08/18 08:46:48;;;;;;;55.47;14.60;;;19.50;76.10;;;;;;4995213;28;20127;-61
2021/08/18 08:49:17;;;;;;;55.58;14.38;;;19.50;76.00;;;;;;5009177;28;20029;-61
2021/08/18 08:51:46;;;;;;;47.97;13.52;;;19.50;76.00;;;;;;5048971;28;20112;-61
2021/08/18 08:54:12;;;;;;;53.30;13.27;;;19.50;75.80;;;;;;5026550;28;20541;-61
2021/08/18 08:56:38;;;;;;;53.15;15.23;;;19.60;75.70;;;;;;5032248;28;20033;-60
2021/08/18 08:59:03;;;;;;;62.72;15.27;;;19.50;75.70;;;;;;5053431;28;20024;-61
2021/08/18 09:02:07;;;;;;;60.17;14.32;;;19.60;75.50;;;;;;5023766;28;20040;-61
2021/08/18 09:04:36;;;;;;;73.70;15.55;;;19.60;75.30;;;;;;5029401;28;20082;-61
2021/08/18 09:07:21;;;;;;;65.30;14.82;;;19.60;75.00;;;;;;5051753;28;20103;-61
2021/08/18 09:10:06;;;;;;;55.57;14.50;;;19.60;74.70;;;;;;5049725;28;20537;-61
2021/08/18 09:12:39;;;;;;;52.25;13.38;;;19.70;74.70;;;;;;5030437;28;20032;-61
2021/08/18 09:15:14;;;;;;;45.28;12.73;;;19.70;74.20;;;;;;4997426;28;20108;-61
2021/08/18 09:17:40;;;;;;;44.75;13.05;;;19.70;74.00;;;;;;5036729;28;20152;-61
2021/08/18 09:20:11;;;;;;;33.63;12.40;;;19.70;74.00;;;;;;5001960;28;20377;-61
2021/08/18 09:22:42;;;;;;;53.85;13.95;;;19.80;74.00;;;;;;5017116;28;20029;-61
2021/08/18 09:25:12;;;;;;;51.25;13.18;;;19.80;73.90;;;;;;5036800;28;20044;-61
2021/08/18 09:27:38;;;;;;;46.13;13.80;;;19.80;73.80;;;;;;5053351;28;20032;-61
2021/08/18 09:30:05;;;;;;;39.90;13.23;;;19.80;73.80;;;;;;5052814;28;20507;-61
2021/08/18 09:32:32;;;;;;;56.15;15.25;;;19.80;74.00;;;;;;5036819;28;20453;-61
2021/08/18 09:35:08;;;;;;;51.85;14.90;;;19.90;73.90;;;;;;5015935;28;20108;-61
2021/08/18 09:37:34;;;;;;;42.40;14.00;;;19.90;73.70;;;;;;5052827;28;20064;-61
2021/08/18 09:39:59;;;;;;;25.85;12.13;;;19.90;73.50;;;;;;5047447;28;20099;-61
2021/08/18 09:42:32;;;;;;;42.28;13.05;;;20.00;73.50;;;;;;5019416;28;20016;-61
2021/08/18 09:45:14;;;;;;;51.80;11.98;;;20.00;73.40;;;;;;5021322;28;20021;-61
2021/08/18 09:47:53;;;;;;;43.90;12.38;;;20.00;73.30;;;;;;5051388;28;20037;-61
2021/08/18 09:50:21;;;;;;;63.70;13.65;;;20.00;73.20;;;;;;5032969;28;20043;-61
2021/08/18 09:52:47;;;;;;;37.67;13.10;;;20.10;73.20;;;;;;5028920;28;20043;-61
2021/08/18 09:55:12;;;;;;;41.72;11.57;;;20.10;73.30;;;;;;5003146;28;20029;-61
2021/08/18 09:57:38;;;;;;;42.55;12.50;;;20.20;73.20;;;;;;5034961;28;20104;-61
2021/08/18 10:00:04;;;;;;;55.92;12.90;;;20.20;73.20;;;;;;5009224;28;20036;-61
2021/08/18 10:02:30;;;;;;;48.33;13.57;;;20.30;73.60;;;;;;5004895;28;20033;-60
2021/08/18 10:04:59;;;;;;;37.00;12.27;;;20.30;73.50;;;;;;5034465;28;20036;-60
2021/08/18 10:07:24;;;;;;;47.53;12.50;;;20.30;73.10;;;;;;5016912;28;20051;-60
2021/08/18 10:09:50;;;;;;;59.53;12.88;;;20.30;73.20;;;;;;5044703;28;20797;-61
2021/08/18 10:12:16;;;;;;;50.30;12.85;;;20.30;73.30;;;;;;5020049;28;20028;-61
2021/08/18 10:14:41;;;;;;;72.50;13.07;;;20.40;73.50;;;;;;5020365;28;20171;-60
2021/08/18 10:17:07;;;;;;;55.78;13.23;;;20.40;73.20;;;;;;5034561;28;20049;-61
2021/08/18 10:19:32;;;;;;;47.22;11.25;;;20.50;73.10;;;;;;5039500;28;20428;-61
2021/08/18 10:21:59;;;;;;;62.50;11.70;;;20.50;73.00;;;;;;5024263;28;20032;-60
2021/08/18 10:24:40;;;;;;;56.22;11.20;;;20.60;73.30;;;;;;5020327;28;20095;-60
2021/08/18 10:27:05;;;;;;;48.58;11.25;;;20.60;73.50;;;;;;5022617;28;20047;-61
2021/08/18 10:29:33;;;;;;;52.70;10.88;;;20.60;73.20;;;;;;5056800;28;20025;-61
2021/08/18 10:32:05;;;;;;;53.08;10.13;;;20.60;73.30;;;;;;5045975;28;20028;-61
2021/08/18 10:34:35;;;;;;;38.38;10.68;;;20.60;72.80;;;;;;5064299;28;20107;-62
2021/08/18 10:37:16;;;;;;;44.97;11.00;;;20.70;72.90;;;;;;5041454;28;20129;-61
2021/08/18 10:39:43;;;;;;;52.47;10.25;;;20.70;73.00;;;;;;5027458;28;20035;-61
2021/08/18 10:42:32;;;;;;;56.60;10.02;;;20.70;73.00;;;;;;5043067;28;20031;-61
2021/08/18 10:44:58;;;;;;;50.20;11.07;;;20.70;73.00;;;;;;5056759;28;20037;-61
2021/08/18 10:47:27;;;;;;;61.63;11.57;;;20.80;73.00;;;;;;5015717;28;20036;-61
2021/08/18 10:49:55;;;;;;;61.10;10.52;;;20.80;73.10;;;;;;5043359;28;20400;-61
2021/08/18 10:52:30;;;;;;;55.05;11.52;;;20.90;73.00;;;;;;5062034;28;20307;-61
2021/08/18 10:55:06;;;;;;;63.83;11.20;;;20.90;73.10;;;;;;5061266;28;20096;-61
2021/08/18 10:57:44;;;;;;;51.63;11.85;;;20.90;73.00;;;;;;5031334;28;20079;-61
2021/08/18 11:00:10;;;;;;;55.33;10.73;;;20.90;72.70;;;;;;5060057;28;20017;-61
2021/08/18 11:03:05;;;;;;;57.58;11.18;;;20.90;72.50;;;;;;5060503;28;20146;-61
2021/08/18 11:05:37;;;;;;;46.90;10.82;;;21.00;72.60;;;;;;5041638;28;20075;-61
2021/08/18 11:08:09;;;;;;;40.47;10.95;;;21.00;72.50;;;;;;5044640;28;20024;-61
2021/08/18 11:10:56;;;;;;;30.17;9.52;;;21.10;73.20;;;;;;5057998;28;20079;-61
2021/08/18 11:13:41;;;;;;;44.72;9.70;;;21.10;72.30;;;;;;5029209;28;20068;-61
2021/08/18 11:16:29;;;;;;;38.33;9.50;;;21.10;72.20;;;;;;5025111;28;20024;-60
2021/08/18 11:19:02;;;;;;;51.25;10.50;;;21.20;72.20;;;;;;5029021;28;20048;-61
2021/08/18 11:21:32;;;;;;;48.05;10.25;;;21.20;72.00;;;;;;5034269;28;20021;-61
2021/08/18 11:23:59;;;;;;;56.67;10.55;;;21.30;71.90;;;;;;5021124;28;20040;-61
2021/08/18 11:26:29;;;;;;;46.78;9.85;;;21.30;72.00;;;;;;5036296;28;20024;-60
2021/08/18 11:28:57;;;;;;;46.40;9.23;;;21.30;71.90;;;;;;5043090;28;20035;-61
2021/08/18 11:31:34;;;;;;;55.80;8.98;;;21.40;71.70;;;;;;5038061;28;20040;-61
2021/08/18 11:34:00;;;;;;;49.55;9.77;;;21.40;71.80;;;;;;5023876;28;20044;-61
2021/08/18 11:36:26;;;;;;;72.00;13.73;;;21.40;71.60;;;;;;5015764;28;20602;-61
2021/08/18 11:38:59;;;;;;;43.25;10.07;;;21.40;71.50;;;;;;5031492;28;20036;-61
2021/08/18 11:41:35;;;;;;;55.42;10.00;;;21.50;71.50;;;;;;4993469;28;20132;-61
2021/08/18 11:44:00;;;;;;;41.33;9.30;;;21.50;71.40;;;;;;5037231;28;20032;-61
2021/08/18 11:46:26;;;;;;;35.85;9.93;;;21.60;71.20;;;;;;5018958;28;20058;-61
2021/08/18 11:48:51;;;;;;;40.47;9.35;;;21.60;71.30;;;;;;5012097;28;20036;-61
2021/08/18 11:51:19;;;;;;;47.88;9.75;;;21.70;71.20;;;;;;5038314;28;20051;-62
2021/08/18 11:53:53;;;;;;;51.95;9.52;;;21.70;71.00;;;;;;5037726;28;20063;-61
2021/08/18 11:56:28;;;;;;;40.85;8.82;;;21.80;70.90;;;;;;5020371;28;20535;-61
2021/08/18 11:58:58;;;;;;;41.72;8.43;;;21.80;70.70;;;;;;5019535;28;20128;-61
2021/08/18 12:01:23;;;;;;;34.25;7.55;;;21.80;70.70;;;;;;4991953;28;20037;-61
2021/08/18 12:03:49;;;;;;;47.33;8.80;;;21.90;70.60;;;;;;5009231;28;20859;-61
2021/08/18 12:06:14;;;;;;;40.80;10.27;;;21.90;70.50;;;;;;5027478;28;20100;-61
2021/08/18 12:08:43;;;;;;;38.38;9.25;;;21.90;70.50;;;;;;5017473;28;20044;-61
2021/08/18 12:11:09;;;;;;;37.45;8.07;;;21.90;70.30;;;;;;5032243;28;20137;-61
2021/08/18 12:13:39;;;;;;;37.17;8.27;;;22.00;70.20;;;;;;5026790;28;20096;-61
2021/08/18 12:16:25;;;;;;;64.25;10.10;;;22.00;70.20;;;;;;5032960;28;20024;-61
2021/08/18 12:18:54;;;;;;;52.45;8.77;;;22.10;69.90;;;;;;5012979;28;20041;-61
2021/08/18 12:21:19;;;;;;;41.80;8.13;;;22.20;69.50;;;;;;5054397;28;20136;-61
2021/08/18 12:23:49;;;;;;;71.75;8.75;;;22.30;69.30;;;;;;5033722;28;20416;-61
2021/08/18 12:26:32;;;;;;;62.58;10.23;;;22.40;69.10;;;;;;5008929;28;20036;-60
2021/08/18 12:29:05;;;;;;;58.45;8.85;;;22.40;68.90;;;;;;5014845;28;20032;-61